Robert E. Mcallister — WDC8669 — position and weather

sailwx.info

Track history (hours):
 
Tides and Currents Weather Stations Pressure Air Temp Water Temp Dewpoint Dewpoint Depression Visibility Wind Speed Wind Dir Waves Ship Positions

Robert E. Mcallister

Owner: McAllister Towing & Transportation, Staten Island, NY. More information available from US FCC via Universal Licensing System and Coast Guard Vessel Documentation Center.

Last reported at 2016-Jul-28 17:06 UTC. Time now 2016-Jul-28 18:17 UTC.
Position N 40°39' W 074°09'.

Length 34 m; draft 4.3 m.

Type: Tug. MMSI: 367091120.

Date/timePositionNaut miles runAvg speedWind from/ knotsBaromVisibWave heightAir tempDewpointWater temp
2016-Jul-28 17:06N 40°39' W 074°09'3 5.1
2016-Jul-28 16:33N 40°39' W 074°05'3 3.0
2016-Jul-28 15:31N 40°36' W 074°03'9 3.4
2016-Jul-28 13:03N 40°28' W 074°03'7 7.2
2016-Jul-28 12:04N 40°35' W 074°02'5 8.8
2016-Jul-28 11:33N 40°39' W 074°05'3 2.1
2016-Jul-28 10:19N 40°38' W 074°08'1 1.5
2016-Jul-28 09:32N 40°40' W 074°09'1 0.1
2016-Jul-28 01:31N 40°40' W 074°08'1 1.2
2016-Jul-28 00:33N 40°41' W 074°09'1 0.4
2016-Jul-27 21:33N 40°40' W 074°09'3 3.0
2016-Jul-27 20:33N 40°39' W 074°05'  
2016-Jul-22 19:23N 40°38' W 074°10'0 0.0
2016-Jul-22 18:32N 40°38' W 074°10'2 2.2
2016-Jul-22 17:33N 40°39' W 074°07'7 7.1
2016-Jul-22 16:30N 40°32' W 074°02'5 0.4
2016-Jul-22 04:33N 40°27' W 074°03'0 0.0
2016-Jul-21 09:32N 40°27' W 074°03'0 0.0
2016-Jul-19 11:15N 40°27' W 074°03'0 0.0
2016-Jul-19 10:32N 40°27' W 074°03'0 0.0
2016-Jul-18 22:18N 40°27' W 074°03'  
Track history (hours):
 
Tides and Currents Weather Stations Pressure Air Temp Water Temp Dewpoint Dewpoint Depression Visibility Wind Speed Wind Dir Waves Ship Positions

Robert E. Mcallister

Owner: McAllister Towing & Transportation, Staten Island, NY. More information available from US FCC via Universal Licensing System and Coast Guard Vessel Documentation Center.

Last reported at 2016-Jul-28 17:06 UTC. Time now 2016-Jul-28 18:17 UTC.
Position N 40°39' W 074°09'.

Length 34 m; draft 4.3 m.

Type: Tug. MMSI: 367091120.

Date/timePositionNaut miles runAvg speedWind from/ knotsBaromVisibWave heightAir tempDewpointWater temp
2016-Jul-28 17:06N 40°39' W 074°09'3 5.1
2016-Jul-28 16:33N 40°39' W 074°05'3 3.0
2016-Jul-28 15:31N 40°36' W 074°03'9 3.4
2016-Jul-28 13:03N 40°28' W 074°03'7 7.2
2016-Jul-28 12:04N 40°35' W 074°02'5 8.8
2016-Jul-28 11:33N 40°39' W 074°05'3 2.1
2016-Jul-28 10:19N 40°38' W 074°08'1 1.5
2016-Jul-28 09:32N 40°40' W 074°09'1 0.1
2016-Jul-28 01:31N 40°40' W 074°08'1 1.2
2016-Jul-28 00:33N 40°41' W 074°09'1 0.4
2016-Jul-27 21:33N 40°40' W 074°09'3 3.0
2016-Jul-27 20:33N 40°39' W 074°05'  
2016-Jul-22 19:23N 40°38' W 074°10'0 0.0
2016-Jul-22 18:32N 40°38' W 074°10'2 2.2
2016-Jul-22 17:33N 40°39' W 074°07'7 7.1
2016-Jul-22 16:30N 40°32' W 074°02'5 0.4
2016-Jul-22 04:33N 40°27' W 074°03'0 0.0
2016-Jul-21 09:32N 40°27' W 074°03'0 0.0
2016-Jul-19 11:15N 40°27' W 074°03'0 0.0
2016-Jul-19 10:32N 40°27' W 074°03'0 0.0
2016-Jul-18 22:18N 40°27' W 074°03'  

Dump ship's entire track history